createdAt,value
2023-07-29T00:02:11.992Z,1.27
2023-07-29T00:04:39.873Z,1.23
2023-07-29T00:07:07.398Z,1.27
2023-07-29T00:09:34.878Z,1.30
2023-07-29T00:12:02.608Z,1.30
2023-07-29T00:14:30.130Z,1.10
2023-07-29T00:16:57.795Z,1.43
2023-07-29T00:19:25.701Z,1.48
2023-07-29T00:21:53.391Z,1.70
2023-07-29T00:24:20.874Z,1.60
2023-07-29T00:26:48.705Z,1.37
2023-07-29T00:29:16.233Z,1.30
2023-07-29T00:31:43.795Z,1.73
2023-07-29T00:34:11.590Z,1.35
2023-07-29T00:36:39.408Z,1.65
2023-07-29T00:39:07.089Z,1.60
2023-07-29T00:41:34.870Z,1.30
2023-07-29T00:44:02.353Z,1.60
2023-07-29T00:46:34.522Z,1.20
2023-07-29T00:49:03.069Z,1.50
2023-07-29T00:51:30.739Z,1.70
2023-07-29T00:53:58.355Z,1.50
2023-07-29T00:56:26.156Z,1.35
2023-07-29T00:58:59.812Z,1.80
2023-07-29T01:01:29.832Z,1.75
2023-07-29T01:03:58.092Z,1.40
2023-07-29T01:06:47.578Z,1.57
2023-07-29T01:09:26.828Z,1.77
2023-07-29T01:12:02.131Z,1.62
2023-07-29T01:14:35.599Z,1.40
2023-07-29T01:17:05.350Z,1.60
2023-07-29T01:19:45.743Z,1.50
2023-07-29T01:22:14.735Z,1.70
2023-07-29T01:24:42.558Z,1.95
2023-07-29T01:27:10.138Z,1.65
2023-07-29T01:29:37.607Z,1.85
2023-07-29T01:32:13.038Z,1.60
2023-07-29T01:34:49.027Z,1.70
2023-07-29T01:37:24.275Z,1.60
2023-07-29T01:39:52.093Z,1.45
2023-07-29T01:42:19.965Z,1.52
2023-07-29T01:44:47.499Z,1.40
2023-07-29T01:47:15.189Z,1.73
2023-07-29T01:49:43.069Z,1.83
2023-07-29T01:52:10.571Z,1.60
2023-07-29T01:54:38.129Z,1.80
2023-07-29T01:57:06.025Z,1.47
2023-07-29T01:59:33.566Z,1.70
2023-07-29T02:02:01.054Z,1.83
2023-07-29T02:04:29.251Z,1.70
2023-07-29T02:06:56.812Z,1.52
2023-07-29T02:09:24.391Z,1.40
2023-07-29T02:11:52.291Z,1.45
2023-07-29T02:14:19.827Z,1.75
2023-07-29T02:16:47.851Z,1.17
2023-07-29T02:19:15.368Z,1.70
2023-07-29T02:21:43.132Z,1.50
2023-07-29T02:24:11.025Z,1.60
2023-07-29T02:26:38.860Z,1.70
2023-07-29T02:29:06.684Z,1.62
2023-07-29T02:31:35.893Z,1.48
2023-07-29T02:34:03.577Z,1.33
2023-07-29T02:36:31.085Z,1.40
2023-07-29T02:38:59.434Z,1.55
2023-07-29T02:41:27.324Z,1.52
2023-07-29T02:43:54.914Z,1.75
2023-07-29T02:46:22.495Z,1.30
2023-07-29T02:48:52.464Z,1.95
2023-07-29T02:51:20.109Z,1.45
2023-07-29T02:53:47.643Z,1.58
2023-07-29T02:56:15.450Z,1.80
2023-07-29T02:58:43.217Z,1.30
2023-07-29T03:01:10.808Z,1.80
2023-07-29T03:03:40.213Z,1.62
2023-07-29T03:06:09.323Z,1.30
2023-07-29T03:08:37.120Z,1.40
2023-07-29T03:11:11.166Z,1.63
2023-07-29T03:13:38.920Z,1.52
2023-07-29T03:16:11.259Z,1.70
2023-07-29T03:18:39.557Z,1.70
2023-07-29T03:21:07.882Z,1.50
2023-07-29T03:23:35.813Z,1.57
2023-07-29T03:26:10.934Z,1.45
2023-07-29T03:28:43.429Z,1.45
2023-07-29T03:31:11.901Z,1.50
2023-07-29T03:33:39.943Z,1.17
2023-07-29T03:36:07.648Z,1.97
2023-07-29T03:38:36.604Z,1.85
2023-07-29T03:41:04.798Z,1.45
2023-07-29T03:43:32.493Z,1.60
2023-07-29T03:46:01.202Z,1.60
2023-07-29T03:48:29.116Z,1.53
2023-07-29T03:50:56.713Z,1.67
2023-07-29T03:53:24.314Z,1.35
2023-07-29T03:55:52.211Z,1.75
2023-07-29T03:58:19.698Z,1.58
2023-07-29T04:00:47.643Z,1.73
2023-07-29T04:03:15.428Z,1.80
2023-07-29T04:05:43.128Z,2.25
2023-07-29T04:08:11.077Z,1.42
2023-07-29T04:10:39.064Z,1.60
2023-07-29T04:13:06.677Z,1.43
2023-07-29T04:15:34.466Z,1.40
2023-07-29T04:18:02.361Z,1.67
2023-07-29T04:20:30.242Z,1.85
2023-07-29T04:22:58.027Z,1.55
2023-07-29T04:25:25.904Z,1.47
2023-07-29T04:27:53.525Z,1.75
2023-07-29T04:30:21.073Z,1.60
2023-07-29T04:32:49.650Z,1.33
2023-07-29T04:35:17.277Z,1.62
2023-07-29T04:37:45.232Z,1.50
2023-07-29T04:40:13.092Z,1.50
2023-07-29T04:42:40.727Z,1.60
2023-07-29T04:45:10.450Z,1.45
2023-07-29T04:47:38.393Z,1.70
2023-07-29T04:50:07.323Z,1.57
2023-07-29T04:52:34.828Z,1.73
2023-07-29T04:55:02.701Z,1.73
2023-07-29T04:57:30.409Z,1.62
2023-07-29T04:59:58.008Z,1.60
2023-07-29T05:02:26.563Z,2.13
2023-07-29T05:04:56.064Z,1.58
2023-07-29T05:07:23.698Z,1.60
2023-07-29T05:09:51.469Z,1.58
2023-07-29T05:12:18.989Z,1.48
2023-07-29T05:14:46.509Z,1.83
2023-07-29T05:17:14.889Z,1.50
2023-07-29T05:19:42.440Z,2.53
2023-07-29T05:22:11.434Z,2.62
2023-07-29T05:24:39.513Z,2.25
2023-07-29T05:27:07.287Z,2.10
2023-07-29T05:29:34.791Z,1.60
2023-07-29T05:32:02.570Z,1.52
2023-07-29T05:34:30.278Z,2.00
2023-07-29T05:36:57.815Z,2.20
2023-07-29T05:39:25.644Z,1.77
2023-07-29T05:41:53.187Z,2.12
2023-07-29T05:44:21.190Z,2.55
2023-07-29T05:46:49.114Z,1.90
2023-07-29T05:49:16.736Z,2.25
2023-07-29T05:51:44.755Z,1.90
2023-07-29T05:54:12.626Z,2.03
2023-07-29T05:56:40.304Z,2.15
2023-07-29T05:59:10.320Z,1.73
2023-07-29T06:01:38.100Z,2.22
2023-07-29T06:04:05.982Z,1.93
2023-07-29T06:06:33.716Z,2.10
2023-07-29T06:09:01.448Z,2.45
2023-07-29T06:11:29.279Z,2.22
2023-07-29T06:13:56.887Z,2.62
2023-07-29T06:16:24.511Z,3.30
2023-07-29T06:18:53.916Z,3.10
2023-07-29T06:21:21.521Z,2.33
2023-07-29T06:23:49.023Z,2.60
2023-07-29T06:26:17.169Z,2.25
2023-07-29T06:28:44.835Z,2.20
2023-07-29T06:31:12.459Z,2.15
2023-07-29T06:33:40.410Z,2.15
2023-07-29T06:36:07.972Z,2.05
2023-07-29T06:38:35.495Z,2.22
2023-07-29T06:41:03.465Z,2.10
2023-07-29T06:43:31.025Z,2.22
2023-07-29T06:45:58.601Z,2.37
2023-07-29T06:48:26.419Z,2.15
2023-07-29T06:50:53.995Z,2.00
2023-07-29T06:53:21.635Z,2.20
2023-07-29T06:55:49.654Z,2.08
2023-07-29T06:58:17.139Z,2.00
2023-07-29T07:00:44.698Z,1.80
2023-07-29T07:03:12.625Z,2.17
2023-07-29T07:05:40.298Z,1.97
2023-07-29T07:08:07.862Z,1.70
2023-07-29T07:10:35.780Z,1.65
2023-07-29T07:13:03.585Z,1.95
2023-07-29T07:15:31.126Z,1.60
2023-07-29T07:17:58.963Z,1.80
2023-07-29T07:20:26.548Z,1.90
2023-07-29T07:22:54.072Z,1.90
2023-07-29T07:25:21.908Z,1.62
2023-07-29T07:27:49.767Z,2.20
2023-07-29T07:30:17.439Z,1.90
2023-07-29T07:32:46.485Z,1.45
2023-07-29T07:35:14.252Z,1.50
2023-07-29T07:37:41.752Z,1.75
2023-07-29T07:40:10.106Z,1.75
2023-07-29T07:42:37.765Z,1.40
2023-07-29T07:45:06.355Z,1.80
2023-07-29T07:47:34.217Z,1.50
2023-07-29T07:50:01.728Z,1.17
2023-07-29T07:52:29.267Z,1.45
2023-07-29T07:54:56.986Z,1.70
2023-07-29T07:57:24.586Z,1.37
2023-07-29T07:59:53.545Z,1.60
2023-07-29T08:02:21.780Z,1.40
2023-07-29T08:04:49.664Z,1.75
2023-07-29T08:07:17.187Z,1.20
2023-07-29T08:09:45.021Z,2.40
2023-07-29T08:12:12.771Z,1.80
2023-07-29T08:14:40.384Z,1.98
2023-07-29T08:17:07.974Z,1.87
2023-07-29T08:19:36.286Z,1.60
2023-07-29T08:22:04.323Z,1.17
2023-07-29T08:24:31.931Z,1.55
2023-07-29T08:26:59.708Z,1.40
2023-07-29T08:29:27.237Z,1.40
2023-07-29T08:31:56.474Z,1.40
2023-07-29T08:34:24.388Z,1.25
2023-07-29T08:36:51.930Z,1.52
2023-07-29T08:39:19.541Z,1.10
2023-07-29T08:41:51.530Z,1.33
2023-07-29T08:44:18.947Z,1.17
2023-07-29T08:46:47.343Z,1.40
2023-07-29T08:49:15.580Z,1.20
2023-07-29T08:51:44.162Z,1.33
2023-07-29T08:54:12.146Z,1.30
2023-07-29T08:56:41.497Z,1.63
2023-07-29T08:59:10.282Z,0.88
2023-07-29T09:01:39.727Z,1.10
2023-07-29T09:04:07.350Z,1.15
2023-07-29T09:06:36.612Z,1.12
2023-07-29T09:09:04.797Z,1.10
2023-07-29T09:11:32.599Z,1.05
2023-07-29T09:14:00.173Z,1.00
2023-07-29T09:16:28.137Z,0.88
2023-07-29T09:18:56.545Z,1.20
2023-07-29T09:21:25.994Z,1.00
2023-07-29T09:23:53.885Z,1.33
2023-07-29T09:26:25.574Z,1.10
2023-07-29T09:28:55.068Z,1.00
2023-07-29T09:31:23.955Z,1.20
2023-07-29T09:34:03.780Z,0.93
2023-07-29T09:36:33.348Z,1.10
2023-07-29T09:39:01.208Z,1.02
2023-07-29T09:41:32.346Z,1.02
2023-07-29T09:44:02.837Z,1.17
2023-07-29T09:46:38.692Z,1.10
2023-07-29T09:49:08.300Z,1.20
2023-07-29T09:51:42.520Z,1.05
2023-07-29T09:54:12.013Z,1.35
2023-07-29T09:56:45.610Z,1.35
2023-07-29T09:59:13.798Z,0.90
2023-07-29T10:01:41.952Z,1.33
2023-07-29T10:04:12.835Z,1.30
2023-07-29T10:06:42.826Z,1.30
2023-07-29T10:09:12.513Z,1.15
2023-07-29T10:11:40.756Z,1.10
2023-07-29T10:14:09.377Z,1.20
2023-07-29T10:16:42.682Z,1.20
2023-07-29T10:19:11.029Z,1.33
2023-07-29T10:21:40.464Z,1.10
2023-07-29T10:24:10.927Z,1.10
2023-07-29T10:26:39.620Z,1.30
2023-07-29T10:29:09.766Z,1.42
2023-07-29T10:31:38.544Z,1.10
2023-07-29T10:34:06.714Z,1.48
2023-07-29T10:36:38.015Z,1.37
2023-07-29T10:39:08.260Z,1.23
2023-07-29T10:41:58.345Z,1.33
2023-07-29T10:44:55.556Z,1.12
2023-07-29T10:47:28.006Z,1.20
2023-07-29T10:49:57.908Z,1.10
2023-07-29T10:52:52.163Z,1.45
2023-07-29T10:55:27.249Z,1.30
2023-07-29T10:58:15.417Z,1.50
2023-07-29T11:00:46.864Z,1.75
2023-07-29T11:03:18.029Z,0.97
2023-07-29T11:05:53.866Z,1.35
2023-07-29T11:08:31.423Z,1.50
2023-07-29T11:11:00.043Z,1.45
2023-07-29T11:13:29.206Z,1.65
2023-07-29T11:15:59.548Z,1.27
2023-07-29T11:18:35.341Z,1.37
2023-07-29T11:21:04.675Z,1.73
2023-07-29T11:23:37.365Z,1.20
2023-07-29T11:26:05.801Z,1.40
2023-07-29T11:28:39.695Z,1.60
2023-07-29T11:31:07.304Z,1.77
2023-07-29T11:33:35.206Z,1.27
2023-07-29T11:36:02.757Z,1.20
2023-07-29T11:38:32.390Z,1.33
2023-07-29T11:41:03.527Z,1.27
2023-07-29T11:43:31.180Z,1.37
2023-07-29T11:46:02.049Z,1.40
2023-07-29T11:48:32.581Z,1.12
2023-07-29T11:51:00.317Z,1.40
2023-07-29T11:53:33.988Z,1.50
2023-07-29T11:56:02.460Z,1.10
2023-07-29T11:58:30.030Z,1.27
2023-07-29T12:00:57.632Z,1.27
2023-07-29T12:03:26.924Z,1.40
2023-07-29T12:05:54.634Z,1.50
2023-07-29T12:08:22.221Z,1.08
2023-07-29T12:10:50.154Z,1.95
2023-07-29T12:13:17.656Z,1.30
2023-07-29T12:15:45.213Z,1.55
2023-07-29T12:18:13.528Z,1.33
2023-07-29T12:20:41.060Z,1.45
2023-07-29T12:23:09.485Z,1.50
2023-07-29T12:25:37.424Z,1.50
2023-07-29T12:28:08.157Z,1.60
2023-07-29T12:30:43.236Z,1.37
2023-07-29T12:33:11.193Z,1.52
2023-07-29T12:35:39.407Z,1.55
2023-07-29T12:38:07.041Z,1.50
2023-07-29T12:40:39.543Z,1.50
2023-07-29T12:43:06.987Z,1.67
2023-07-29T12:45:40.827Z,1.40
2023-07-29T12:48:09.341Z,1.70
2023-07-29T12:50:38.022Z,1.55
2023-07-29T12:53:06.416Z,1.33
2023-07-29T12:55:33.995Z,1.40
2023-07-29T12:58:02.011Z,1.58
2023-07-29T13:00:29.630Z,1.42
2023-07-29T13:02:57.350Z,1.25
2023-07-29T13:05:25.251Z,1.65
2023-07-29T13:07:53.124Z,1.13
2023-07-29T13:10:20.882Z,1.48
2023-07-29T13:12:50.006Z,1.50
2023-07-29T13:15:17.690Z,1.27
2023-07-29T13:17:45.280Z,1.55
2023-07-29T13:20:13.348Z,1.20
2023-07-29T13:22:40.907Z,1.50
2023-07-29T13:25:08.691Z,1.60
2023-07-29T13:27:36.428Z,1.30
2023-07-29T13:30:04.195Z,1.45
2023-07-29T13:32:31.804Z,1.60
2023-07-29T13:34:59.617Z,1.37
2023-07-29T13:37:27.056Z,1.52
2023-07-29T13:39:54.551Z,1.58
2023-07-29T13:42:22.370Z,1.60
2023-07-29T13:44:52.819Z,1.20
2023-07-29T13:47:20.314Z,1.50
2023-07-29T13:49:48.149Z,1.70
2023-07-29T13:52:15.859Z,1.60
2023-07-29T13:54:43.504Z,1.10
2023-07-29T13:57:17.427Z,1.43
2023-07-29T13:59:47.223Z,1.37
2023-07-29T14:02:15.053Z,1.30
2023-07-29T14:04:52.005Z,1.37
2023-07-29T14:07:20.221Z,1.60
2023-07-29T14:09:48.997Z,1.30
2023-07-29T14:12:19.658Z,1.23
2023-07-29T14:14:48.218Z,2.10
2023-07-29T14:17:15.705Z,1.73
2023-07-29T14:19:43.235Z,1.48
2023-07-29T14:22:11.102Z,1.70
2023-07-29T14:24:38.798Z,1.60
2023-07-29T14:27:06.829Z,1.60
2023-07-29T14:29:34.769Z,1.35
2023-07-29T14:32:05.644Z,1.45
2023-07-29T14:34:35.983Z,1.47
2023-07-29T14:37:07.541Z,1.62
2023-07-29T14:39:35.438Z,1.83
2023-07-29T14:42:02.998Z,1.33
2023-07-29T14:44:31.032Z,1.50
2023-07-29T14:46:59.010Z,1.30
2023-07-29T14:49:26.661Z,1.40
2023-07-29T14:51:55.152Z,0.90
2023-07-29T14:54:22.754Z,1.40
2023-07-29T14:56:50.361Z,1.55
2023-07-29T14:59:18.299Z,1.60
2023-07-29T15:01:45.802Z,1.35
2023-07-29T15:04:13.310Z,1.33
2023-07-29T15:06:41.199Z,1.30
2023-07-29T15:09:08.788Z,1.40
2023-07-29T15:11:37.638Z,1.40
2023-07-29T15:14:05.544Z,1.45
2023-07-29T15:16:35.419Z,1.45
2023-07-29T15:19:05.483Z,1.30
2023-07-29T15:21:34.736Z,1.55
2023-07-29T15:24:02.244Z,1.40
2023-07-29T15:26:29.782Z,1.40
2023-07-29T15:28:59.531Z,1.60
2023-07-29T15:31:27.165Z,1.23
2023-07-29T15:33:54.740Z,1.75
2023-07-29T15:36:22.517Z,1.83
2023-07-29T15:38:50.047Z,1.62
2023-07-29T15:41:17.683Z,1.90
2023-07-29T15:43:45.511Z,1.45
2023-07-29T15:46:13.037Z,1.90
2023-07-29T15:48:40.547Z,1.57
2023-07-29T15:51:09.370Z,1.10
2023-07-29T15:53:36.948Z,1.50
2023-07-29T15:56:04.698Z,1.77
2023-07-29T15:58:32.498Z,1.37
2023-07-29T16:01:00.130Z,1.70
2023-07-29T16:03:28.023Z,1.62
2023-07-29T16:05:55.526Z,1.60
2023-07-29T16:08:23.038Z,1.52
2023-07-29T16:10:51.546Z,1.60
2023-07-29T16:13:20.625Z,1.70
2023-07-29T16:15:48.135Z,1.90
2023-07-29T16:18:15.970Z,1.55
2023-07-29T16:20:43.441Z,1.58
2023-07-29T16:23:10.903Z,1.40
2023-07-29T16:25:38.898Z,1.37
2023-07-29T16:28:06.505Z,1.77
2023-07-29T16:30:34.123Z,1.70
2023-07-29T16:33:01.976Z,1.52
2023-07-29T16:35:29.553Z,1.33
2023-07-29T16:37:58.732Z,1.70
2023-07-29T16:40:26.568Z,1.50
2023-07-29T16:42:54.129Z,1.25
2023-07-29T16:45:21.613Z,1.30
2023-07-29T16:47:49.859Z,1.30
2023-07-29T16:50:17.485Z,1.40
2023-07-29T16:52:45.885Z,1.37
2023-07-29T16:55:13.709Z,1.15
2023-07-29T16:57:41.245Z,1.05
2023-07-29T17:00:09.850Z,1.20
2023-07-29T17:02:37.776Z,0.90
2023-07-29T17:05:07.495Z,1.00
2023-07-29T17:07:35.016Z,0.80
2023-07-29T17:10:34.536Z,0.80
2023-07-29T17:13:02.077Z,0.82
2023-07-29T17:15:29.835Z,0.97
2023-07-29T17:18:42.234Z,0.80
2023-07-29T17:21:19.956Z,0.95
2023-07-29T17:23:47.493Z,0.98
2023-07-29T17:26:15.041Z,1.45
2023-07-29T17:28:42.899Z,1.00
2023-07-29T17:31:10.448Z,1.08
2023-07-29T17:33:38.040Z,1.10
2023-07-29T17:36:05.905Z,1.02
2023-07-29T17:38:33.492Z,1.10
2023-07-29T17:41:03.308Z,1.03
2023-07-29T17:43:31.154Z,0.95
2023-07-29T17:45:58.771Z,1.10
2023-07-29T17:48:26.366Z,1.25
2023-07-29T17:50:54.954Z,1.05
2023-07-29T17:53:22.469Z,0.80
2023-07-29T17:55:49.954Z,1.80
2023-07-29T17:58:17.831Z,1.40
2023-07-29T18:00:45.330Z,1.00
2023-07-29T18:03:13.266Z,1.20
2023-07-29T18:05:41.029Z,1.70
2023-07-29T18:08:08.898Z,1.30
2023-07-29T18:10:43.401Z,1.30
2023-07-29T18:13:11.002Z,1.35
2023-07-29T18:15:38.960Z,1.00
2023-07-29T18:18:06.645Z,1.27
2023-07-29T18:20:36.427Z,1.20
2023-07-29T18:23:06.238Z,1.40
2023-07-29T18:25:34.080Z,0.98
2023-07-29T18:28:01.719Z,1.20
2023-07-29T18:30:29.574Z,1.13
2023-07-29T18:32:57.157Z,1.00
2023-07-29T18:35:24.716Z,1.40
2023-07-29T18:37:54.500Z,1.60
2023-07-29T18:40:22.146Z,1.40
2023-07-29T18:42:49.660Z,1.40
2023-07-29T18:45:17.571Z,0.98
2023-07-29T18:47:45.210Z,1.50
2023-07-29T18:50:12.778Z,1.40
2023-07-29T18:52:40.573Z,1.50
2023-07-29T18:55:08.398Z,1.03
2023-07-29T18:57:35.901Z,1.10
2023-07-29T19:00:05.478Z,1.23
2023-07-29T19:02:33.511Z,1.58
2023-07-29T19:05:01.316Z,1.37
2023-07-29T19:07:33.718Z,1.40
2023-07-29T19:10:01.313Z,1.40
2023-07-29T19:12:29.591Z,1.42
2023-07-29T19:14:57.215Z,1.42
2023-07-29T19:17:24.779Z,1.70
2023-07-29T19:19:52.534Z,1.23
2023-07-29T19:22:20.093Z,1.30
2023-07-29T19:24:47.714Z,1.50
2023-07-29T19:27:16.421Z,1.50
2023-07-29T19:29:45.323Z,1.40
2023-07-29T19:32:12.873Z,1.33
2023-07-29T19:34:40.726Z,1.40
2023-07-29T19:37:08.594Z,1.30
2023-07-29T19:39:36.206Z,1.20
2023-07-29T19:42:05.448Z,1.27
2023-07-29T19:44:35.454Z,1.10
2023-07-29T19:47:03.120Z,1.17
2023-07-29T19:49:30.897Z,1.30
2023-07-29T19:52:02.057Z,1.00
2023-07-29T19:54:29.749Z,1.00
2023-07-29T19:56:57.623Z,0.90
2023-07-29T19:59:34.211Z,1.00
2023-07-29T20:02:10.858Z,1.25
2023-07-29T20:04:38.849Z,1.30
2023-07-29T20:07:06.684Z,1.10
2023-07-29T20:09:34.285Z,1.30
2023-07-29T20:12:02.157Z,1.10
2023-07-29T20:14:29.613Z,1.10
2023-07-29T20:16:57.132Z,0.93
2023-07-29T20:19:24.987Z,0.90
2023-07-29T20:21:52.611Z,1.10
2023-07-29T20:24:20.063Z,1.00
2023-07-29T20:26:47.868Z,0.90
2023-07-29T20:29:15.498Z,1.00
2023-07-29T20:31:43.260Z,0.80
2023-07-29T20:34:11.336Z,0.53
2023-07-29T20:36:38.876Z,0.75
2023-07-29T20:39:06.590Z,1.35
2023-07-29T20:41:34.500Z,0.80
2023-07-29T20:44:03.482Z,0.90
2023-07-29T20:46:31.032Z,0.77
2023-07-29T20:48:58.831Z,0.73
2023-07-29T20:51:26.483Z,1.00
2023-07-29T20:53:54.104Z,1.37
2023-07-29T20:56:22.038Z,0.80
2023-07-29T20:58:50.282Z,0.80
2023-07-29T21:01:17.975Z,0.80
2023-07-29T21:03:46.407Z,0.88
2023-07-29T21:06:14.034Z,0.88
2023-07-29T21:08:41.632Z,0.90
2023-07-29T21:11:09.633Z,0.67
2023-07-29T21:13:37.130Z,0.68
2023-07-29T21:16:04.953Z,0.77
2023-07-29T21:18:32.808Z,0.75
2023-07-29T21:21:00.315Z,0.88
2023-07-29T21:23:28.032Z,1.00
2023-07-29T21:25:56.011Z,1.00
2023-07-29T21:28:23.601Z,0.90
2023-07-29T21:30:51.770Z,0.90
2023-07-29T21:33:19.816Z,0.98
2023-07-29T21:35:48.608Z,1.00
2023-07-29T21:38:28.982Z,0.95
2023-07-29T21:40:57.611Z,1.10
2023-07-29T21:43:25.241Z,1.08
2023-07-29T21:45:52.869Z,1.10
2023-07-29T21:48:20.622Z,1.17
2023-07-29T21:50:50.697Z,1.17
2023-07-29T21:53:18.635Z,1.20
2023-07-29T21:55:46.544Z,1.00
2023-07-29T21:58:14.740Z,1.15
2023-07-29T22:00:42.924Z,1.17
2023-07-29T22:03:10.894Z,1.10
2023-07-29T22:05:38.430Z,1.27
2023-07-29T22:08:06.028Z,0.98
2023-07-29T22:10:33.924Z,1.27
2023-07-29T22:13:01.419Z,1.03
2023-07-29T22:15:29.263Z,1.37
2023-07-29T22:17:57.158Z,1.10
2023-07-29T22:20:24.723Z,0.90
2023-07-29T22:22:52.604Z,1.20
2023-07-29T22:25:20.375Z,1.00
2023-07-29T22:27:47.909Z,1.30
2023-07-29T22:30:15.470Z,1.00
2023-07-29T22:32:46.046Z,1.12
2023-07-29T22:35:14.191Z,1.30
2023-07-29T22:37:41.841Z,1.20
2023-07-29T22:40:10.349Z,1.10
2023-07-29T22:42:38.003Z,1.30
2023-07-29T22:45:05.876Z,1.30
2023-07-29T22:47:33.687Z,1.73
2023-07-29T22:50:01.300Z,1.20
2023-07-29T22:52:28.766Z,1.20
2023-07-29T22:54:56.622Z,1.00
2023-07-29T22:57:24.129Z,1.00
2023-07-29T22:59:51.646Z,1.15
2023-07-29T23:02:19.495Z,1.00
2023-07-29T23:04:47.087Z,1.20
2023-07-29T23:07:14.649Z,1.10
2023-07-29T23:09:42.629Z,1.45
2023-07-29T23:12:10.131Z,1.20
2023-07-29T23:14:37.688Z,1.00
2023-07-29T23:17:05.687Z,1.30
2023-07-29T23:19:33.778Z,1.20
2023-07-29T23:22:01.331Z,0.98
2023-07-29T23:24:29.140Z,1.10
2023-07-29T23:26:56.679Z,0.93
2023-07-29T23:29:24.265Z,1.00
2023-07-29T23:31:52.176Z,1.20
2023-07-29T23:34:19.722Z,1.10
2023-07-29T23:36:47.278Z,1.40
2023-07-29T23:39:15.078Z,1.00
2023-07-29T23:41:42.621Z,1.10
2023-07-29T23:44:10.081Z,1.92
2023-07-29T23:46:37.969Z,1.10
2023-07-29T23:49:05.546Z,1.40
2023-07-29T23:51:33.136Z,1.50
2023-07-29T23:54:01.078Z,0.98
2023-07-29T23:56:28.728Z,1.00
2023-07-29T23:58:56.257Z,1.27
